Time;durP1;ratioP1;P1;durP2;ratioP2;P2;SDS_P1;SDS_P2;PMS_P1;PMS_P2;Temp;Humidity;BMP_temperature;BMP_pressure;BME280_temperature;BME280_humidity;BME280_pressure;Samples;Min_cycle;Max_cycle;Signal;HPM_P1;HPM_P2
2023/02/14 00:02:05;;;;;;;4.05;3.65;;;;;;;;;;5005489;28;20223;-46
2023/02/14 00:04:31;;;;;;;4.35;3.85;;;;;;;;;;5011323;28;20188;-46
2023/02/14 00:06:57;;;;;;;4.68;3.85;;;;;;;;;;5010414;28;20579;-47
2023/02/14 00:09:23;;;;;;;4.18;3.78;;;;;;;;;;5013037;28;20196;-46
2023/02/14 00:11:50;;;;;;;4.05;3.65;;;;;;;;;;5014855;28;20582;-46
2023/02/14 00:17:01;;;;;;;4.50;3.58;;;;;;;;;;5013611;28;20195;-46
2023/02/14 00:19:27;;;;;;;4.03;3.45;;;;;;;;;;5008039;28;20189;-46
2023/02/14 00:21:53;;;;;;;6.00;4.05;;;;;;;;;;5006004;28;20196;-46
2023/02/14 00:24:20;;;;;;;4.20;3.80;;;;;;;;;;5009532;28;20176;-47
2023/02/14 00:26:46;;;;;;;4.13;3.63;;;;;;;;;;5013085;28;20250;-47
2023/02/14 00:29:13;;;;;;;3.97;3.58;;;;;;;;;;5015740;28;20263;-46
2023/02/14 00:31:39;;;;;;;4.45;3.70;;;;;;;;;;5015910;28;20560;-46
2023/02/14 00:34:06;;;;;;;4.28;3.58;;;;;;;;;;5014999;28;20188;-47
2023/02/14 00:36:32;;;;;;;4.20;3.80;;;;;;;;;;5015317;28;20176;-47
2023/02/14 00:38:58;;;;;;;4.30;3.65;;;;;;;;;;5010830;28;20268;-47
2023/02/14 00:41:24;;;;;;;4.25;3.80;;;;;;;;;;5010766;28;20632;-46
2023/02/14 00:43:51;;;;;;;4.28;3.85;;;;;;;;;;5009388;28;20181;-46
2023/02/14 00:46:17;;;;;;;4.13;3.72;;;;;;;;;;5015137;28;20251;-46
2023/02/14 00:48:43;;;;;;;3.95;3.63;;;;;;;;;;5009842;28;20216;-46
2023/02/14 00:51:09;;;;;;;4.28;3.85;;;;;;;;;;5015216;28;20225;-46
2023/02/14 00:53:36;;;;;;;3.60;3.30;;;;;;;;;;5009775;28;20181;-46
2023/02/14 00:56:02;;;;;;;3.67;3.38;;;;;;;;;;5013406;28;20193;-47
2023/02/14 00:58:28;;;;;;;3.80;3.40;;;;;;;;;;5011252;28;20189;-46
2023/02/14 01:00:54;;;;;;;4.35;3.70;;;;;;;;;;5007571;28;20199;-46
2023/02/14 01:03:20;;;;;;;4.13;3.40;;;;;;;;;;5006061;28;20580;-47
2023/02/14 01:05:46;;;;;;;3.42;3.13;;;;;;;;;;5013921;28;20234;-46
2023/02/14 01:08:12;;;;;;;4.10;3.42;;;;;;;;;;5009297;28;20215;-47
2023/02/14 01:10:38;;;;;;;4.40;4.00;;;;;;;;;;5012765;28;20255;-47
2023/02/14 01:13:04;;;;;;;3.88;3.35;;;;;;;;;;5013568;28;20192;-47
2023/02/14 01:15:30;;;;;;;5.40;3.47;;;;;;;;;;5014327;28;20189;-47
2023/02/14 01:17:57;;;;;;;3.65;3.35;;;;;;;;;;5003882;28;20185;-46
2023/02/14 01:20:23;;;;;;;3.60;3.30;;;;;;;;;;5014583;28;20258;-46
2023/02/14 01:22:49;;;;;;;4.28;3.78;;;;;;;;;;5009770;28;20450;-46
2023/02/14 01:25:15;;;;;;;3.92;3.10;;;;;;;;;;5010837;28;20185;-46
2023/02/14 01:27:41;;;;;;;4.07;3.67;;;;;;;;;;5010522;28;20526;-46
2023/02/14 01:30:07;;;;;;;3.95;3.40;;;;;;;;;;5013545;28;20208;-46
2023/02/14 01:32:33;;;;;;;3.70;3.40;;;;;;;;;;5004972;28;20212;-46
2023/02/14 01:34:59;;;;;;;3.58;3.28;;;;;;;;;;5008421;28;20173;-47
2023/02/14 01:37:25;;;;;;;3.92;3.63;;;;;;;;;;5012794;28;20185;-47
2023/02/14 01:39:51;;;;;;;4.40;3.20;;;;;;;;;;5014505;28;20440;-47
2023/02/14 01:42:17;;;;;;;3.25;2.90;;;;;;;;;;5009628;28;20198;-46
2023/02/14 01:44:49;;;;;;;4.22;3.47;;;;;;;;;;5014071;28;20184;-46
2023/02/14 01:47:15;;;;;;;3.25;2.95;;;;;;;;;;4999736;28;20223;-46
2023/02/14 01:49:45;;;;;;;3.25;2.80;;;;;;;;;;5011390;28;20228;-46
2023/02/14 01:52:13;;;;;;;3.13;2.80;;;;;;;;;;5007446;28;20194;-46
2023/02/14 01:54:42;;;;;;;4.30;3.05;;;;;;;;;;5006375;28;20722;-47
2023/02/14 01:57:09;;;;;;;3.42;3.13;;;;;;;;;;5014237;28;20460;-46
2023/02/14 01:59:41;;;;;;;3.15;2.85;;;;;;;;;;5009901;28;20211;-46
2023/02/14 02:02:10;;;;;;;3.25;2.95;;;;;;;;;;5007776;28;20168;-46
2023/02/14 02:04:41;;;;;;;3.67;3.22;;;;;;;;;;5005197;28;20193;-46
2023/02/14 02:07:09;;;;;;;3.92;3.15;;;;;;;;;;5011997;28;20584;-46
2023/02/14 02:09:38;;;;;;;3.58;3.22;;;;;;;;;;5009574;28;20204;-46
2023/02/14 02:12:04;;;;;;;3.33;3.03;;;;;;;;;;5015988;28;20184;-46
2023/02/14 02:14:31;;;;;;;3.10;2.60;;;;;;;;;;5007809;28;20483;-46
2023/02/14 02:16:57;;;;;;;3.47;2.90;;;;;;;;;;5010335;28;20209;-46
2023/02/14 02:19:36;;;;;;;3.20;2.90;;;;;;;;;;5010726;28;20246;-46
2023/02/14 02:22:01;;;;;;;3.95;3.20;;;;;;;;;;5016662;28;20190;-47
2023/02/14 02:24:42;;;;;;;3.33;3.00;;;;;;;;;;5009856;28;20173;-46
2023/02/14 02:27:38;;;;;;;3.03;2.67;;;;;;;;;;5017500;28;20204;-46
2023/02/14 02:30:25;;;;;;;3.10;2.80;;;;;;;;;;5001591;28;20220;-46
2023/02/14 02:32:54;;;;;;;3.20;2.90;;;;;;;;;;5014353;28;20177;-46
2023/02/14 02:35:33;;;;;;;2.97;2.72;;;;;;;;;;5015374;28;20191;-47
2023/02/14 02:38:23;;;;;;;2.70;2.50;;;;;;;;;;5017517;28;20191;-46
2023/02/14 02:40:59;;;;;;;3.08;2.78;;;;;;;;;;5017770;28;20197;-46
2023/02/14 02:43:40;;;;;;;2.85;2.65;;;;;;;;;;5010613;28;20559;-46
2023/02/14 02:55:22;;;;;;;2.75;2.55;;;;;;;;;;5011870;28;20474;-46
2023/02/14 02:57:49;;;;;;;3.05;2.75;;;;;;;;;;5015241;28;20165;-46
2023/02/14 03:00:16;;;;;;;2.88;2.65;;;;;;;;;;5015446;28;20195;-47
2023/02/14 03:05:29;;;;;;;3.30;2.90;;;;;;;;;;5008143;28;20199;-47
2023/02/14 03:07:55;;;;;;;2.75;2.40;;;;;;;;;;5009961;28;20185;-46
2023/02/14 03:10:26;;;;;;;3.20;2.90;;;;;;;;;;5013099;28;20216;-46
2023/02/14 03:13:19;;;;;;;2.60;2.40;;;;;;;;;;5008950;28;20708;-46
2023/02/14 03:16:00;;;;;;;2.55;2.35;;;;;;;;;;5013120;28;20191;-46
2023/02/14 03:18:58;;;;;;;3.15;2.85;;;;;;;;;;5005321;28;20468;-46
2023/02/14 03:21:43;;;;;;;2.67;2.40;;;;;;;;;;4988381;28;20215;-47
2023/02/14 03:24:13;;;;;;;3.53;2.65;;;;;;;;;;5009837;28;20214;-47
2023/02/14 03:26:38;;;;;;;2.88;2.63;;;;;;;;;;5000113;28;20173;-46
2023/02/14 03:29:04;;;;;;;2.65;2.45;;;;;;;;;;5013952;28;20192;-46
2023/02/14 03:31:48;;;;;;;2.92;2.67;;;;;;;;;;5013415;28;20259;-46
2023/02/14 03:34:33;;;;;;;2.45;2.25;;;;;;;;;;5010860;28;20259;-46
2023/02/14 03:37:02;;;;;;;3.05;2.67;;;;;;;;;;5010191;28;20241;-46
2023/02/14 03:39:39;;;;;;;2.80;2.60;;;;;;;;;;5015301;28;20196;-46
2023/02/14 03:42:08;;;;;;;2.70;2.50;;;;;;;;;;5016350;28;20491;-46
2023/02/14 03:44:35;;;;;;;3.17;2.63;;;;;;;;;;5017394;28;20200;-46
2023/02/14 03:47:07;;;;;;;2.65;2.45;;;;;;;;;;5013328;28;20285;-46
2023/02/14 03:49:35;;;;;;;2.15;1.95;;;;;;;;;;5016226;28;20512;-46
2023/02/14 03:52:02;;;;;;;3.13;2.63;;;;;;;;;;5009006;28;20612;-47
2023/02/14 03:54:31;;;;;;;2.65;2.45;;;;;;;;;;5012664;28;20192;-46
2023/02/14 03:57:00;;;;;;;2.35;2.15;;;;;;;;;;5011040;28;20173;-46
2023/02/14 03:59:28;;;;;;;2.63;2.40;;;;;;;;;;5012887;28;20184;-46
2023/02/14 04:02:00;;;;;;;3.85;2.70;;;;;;;;;;5000751;28;20579;-46
2023/02/14 04:04:28;;;;;;;2.33;2.13;;;;;;;;;;5014517;28;20184;-46
2023/02/14 04:06:54;;;;;;;2.40;2.20;;;;;;;;;;5003227;28;20184;-46
2023/02/14 04:09:20;;;;;;;2.65;2.45;;;;;;;;;;5008328;28;20619;-46
2023/02/14 04:11:49;;;;;;;3.40;2.80;;;;;;;;;;5010966;28;20181;-47
2023/02/14 04:14:15;;;;;;;2.85;2.42;;;;;;;;;;5008211;28;20270;-46
2023/02/14 04:19:25;;;;;;;2.78;2.50;;;;;;;;;;5013817;28;20212;-46
2023/02/14 04:21:52;;;;;;;2.75;2.53;;;;;;;;;;5011092;28;20181;-46
2023/02/14 04:24:18;;;;;;;3.03;2.72;;;;;;;;;;5011704;28;20537;-46
2023/02/14 04:27:04;;;;;;;3.10;2.60;;;;;;;;;;5016003;28;20583;-46
2023/02/14 04:29:30;;;;;;;2.78;2.45;;;;;;;;;;5008705;28;20251;-46
2023/02/14 04:31:56;;;;;;;3.45;2.30;;;;;;;;;;5012627;28;20557;-46
2023/02/14 04:34:22;;;;;;;3.00;2.47;;;;;;;;;;5015453;28;20192;-46
2023/02/14 04:36:48;;;;;;;5.25;2.47;;;;;;;;;;5015929;28;20279;-46
2023/02/14 04:39:13;;;;;;;3.45;2.67;;;;;;;;;;5015406;28;20187;-46
2023/02/14 04:41:39;;;;;;;2.80;2.53;;;;;;;;;;5011066;28;20258;-46
2023/02/14 04:44:05;;;;;;;3.00;2.47;;;;;;;;;;5012132;28;20575;-46
2023/02/14 04:46:31;;;;;;;4.75;3.30;;;;;;;;;;5012496;28;20194;-46
2023/02/14 04:48:58;;;;;;;5.30;3.33;;;;;;;;;;5010371;28;20602;-46
2023/02/14 04:51:24;;;;;;;5.47;3.00;;;;;;;;;;5012862;28;20196;-46
2023/02/14 04:53:49;;;;;;;4.53;3.03;;;;;;;;;;5003651;28;20197;-46
2023/02/14 04:56:15;;;;;;;5.38;3.28;;;;;;;;;;5009725;28;20188;-46
2023/02/14 04:58:41;;;;;;;7.90;3.42;;;;;;;;;;5006610;28;20199;-47
2023/02/14 05:01:07;;;;;;;5.05;3.20;;;;;;;;;;5013024;28;20569;-47
2023/02/14 05:03:33;;;;;;;5.68;3.30;;;;;;;;;;5015017;28;20208;-46
2023/02/14 05:05:59;;;;;;;5.40;2.85;;;;;;;;;;5011500;28;20247;-47
2023/02/14 05:08:25;;;;;;;6.50;3.15;;;;;;;;;;5012086;28;20200;-47
2023/02/14 05:10:51;;;;;;;7.15;2.97;;;;;;;;;;5013996;28;20532;-47
2023/02/14 05:13:17;;;;;;;7.22;3.22;;;;;;;;;;5013786;28;20182;-47
2023/02/14 05:15:44;;;;;;;7.45;3.08;;;;;;;;;;5015754;28;20454;-46
2023/02/14 05:18:10;;;;;;;6.43;3.00;;;;;;;;;;5013953;28;20203;-46
2023/02/14 05:20:35;;;;;;;4.32;3.00;;;;;;;;;;5014934;28;20196;-46
2023/02/14 05:23:03;;;;;;;6.03;2.95;;;;;;;;;;5007926;28;20560;-46
2023/02/14 05:25:29;;;;;;;7.40;3.20;;;;;;;;;;5008652;28;20246;-46
2023/02/14 05:27:55;;;;;;;5.85;3.00;;;;;;;;;;5012209;28;20215;-47
2023/02/14 05:30:25;;;;;;;4.50;2.80;;;;;;;;;;5013902;28;20200;-47
2023/02/14 05:32:51;;;;;;;5.85;2.63;;;;;;;;;;5013385;28;20170;-46
2023/02/14 05:35:17;;;;;;;4.40;2.63;;;;;;;;;;5011354;28;20435;-48
2023/02/14 05:37:43;;;;;;;4.47;2.58;;;;;;;;;;5013609;28;20184;-46
2023/02/14 05:40:12;;;;;;;6.07;3.08;;;;;;;;;;5014444;28;20507;-46
2023/02/14 05:42:38;;;;;;;7.07;3.05;;;;;;;;;;5007570;28;20548;-46
2023/02/14 05:45:04;;;;;;;4.15;2.85;;;;;;;;;;5013915;28;20192;-46
2023/02/14 05:47:30;;;;;;;4.50;2.58;;;;;;;;;;5005983;28;20230;-46
2023/02/14 05:49:56;;;;;;;4.05;2.55;;;;;;;;;;5014962;28;20519;-46
2023/02/14 05:52:22;;;;;;;4.72;2.90;;;;;;;;;;5012960;28;20516;-46
2023/02/14 05:54:47;;;;;;;4.30;2.60;;;;;;;;;;5008116;28;20259;-46
2023/02/14 05:57:13;;;;;;;3.45;3.08;;;;;;;;;;5012215;28;20208;-46
2023/02/14 05:59:39;;;;;;;7.55;2.70;;;;;;;;;;5011101;28;20602;-47
2023/02/14 06:02:05;;;;;;;3.53;2.50;;;;;;;;;;5003865;28;20176;-46
2023/02/14 06:04:31;;;;;;;3.42;2.97;;;;;;;;;;5011163;28;20197;-46
2023/02/14 06:06:57;;;;;;;4.60;2.75;;;;;;;;;;5006657;28;20384;-46
2023/02/14 06:09:23;;;;;;;4.35;2.60;;;;;;;;;;5002713;28;20193;-46
2023/02/14 06:11:49;;;;;;;4.05;2.80;;;;;;;;;;5001389;28;20181;-46
2023/02/14 06:14:15;;;;;;;3.53;2.85;;;;;;;;;;5012939;28;20168;-46
2023/02/14 06:16:41;;;;;;;3.45;2.70;;;;;;;;;;5005963;28;20188;-47
2023/02/14 06:19:07;;;;;;;3.47;2.72;;;;;;;;;;5014233;28;20208;-47
2023/02/14 06:21:33;;;;;;;3.35;2.70;;;;;;;;;;5007340;28;20607;-46
2023/02/14 06:23:59;;;;;;;3.92;2.78;;;;;;;;;;5010545;28;20275;-46
2023/02/14 06:26:26;;;;;;;4.72;2.30;;;;;;;;;;5010761;28;20196;-46
2023/02/14 06:28:56;;;;;;;3.97;2.75;;;;;;;;;;5008445;28;20169;-47
2023/02/14 06:31:22;;;;;;;3.13;2.75;;;;;;;;;;5014008;28;20487;-46
2023/02/14 06:33:48;;;;;;;3.47;3.10;;;;;;;;;;5013917;28;20263;-46
2023/02/14 06:36:14;;;;;;;3.67;2.55;;;;;;;;;;5013294;28;20268;-46
2023/02/14 06:38:40;;;;;;;3.95;2.80;;;;;;;;;;5013946;28;20180;-46
2023/02/14 06:41:07;;;;;;;3.42;2.75;;;;;;;;;;5014181;28;20180;-46
2023/02/14 06:43:34;;;;;;;3.53;2.80;;;;;;;;;;5012530;28;20279;-46
2023/02/14 06:45:59;;;;;;;3.65;2.88;;;;;;;;;;5008475;28;20189;-46
2023/02/14 06:48:25;;;;;;;3.30;2.78;;;;;;;;;;5008266;28;20191;-46
2023/02/14 06:50:52;;;;;;;3.38;3.05;;;;;;;;;;5011542;28;20221;-47
2023/02/14 06:53:20;;;;;;;3.20;2.65;;;;;;;;;;5007587;28;20180;-47
2023/02/14 06:55:47;;;;;;;3.78;3.22;;;;;;;;;;5017718;28;20199;-47
2023/02/14 06:58:13;;;;;;;2.75;2.42;;;;;;;;;;5014891;28;20427;-46
2023/02/14 07:00:39;;;;;;;3.95;3.00;;;;;;;;;;5017164;28;20199;-46
2023/02/14 07:03:05;;;;;;;3.13;2.53;;;;;;;;;;5015528;28;20454;-46
2023/02/14 07:05:31;;;;;;;4.57;2.78;;;;;;;;;;5016546;28;20216;-47
2023/02/14 07:07:57;;;;;;;2.60;2.38;;;;;;;;;;5006475;28;20173;-47
2023/02/14 07:10:23;;;;;;;2.90;2.60;;;;;;;;;;5013222;28;20227;-46
2023/02/14 07:12:49;;;;;;;2.85;2.65;;;;;;;;;;5010356;28;20255;-47
2023/02/14 07:15:15;;;;;;;3.35;2.83;;;;;;;;;;5017628;28;20180;-46
2023/02/14 07:17:41;;;;;;;3.55;2.63;;;;;;;;;;5013806;28;20208;-46
2023/02/14 07:20:09;;;;;;;3.25;2.60;;;;;;;;;;5011049;28;20192;-46
2023/02/14 07:22:36;;;;;;;4.30;2.45;;;;;;;;;;5014203;28;20177;-46
2023/02/14 07:25:01;;;;;;;3.25;2.72;;;;;;;;;;5015203;28;20200;-46
2023/02/14 07:27:27;;;;;;;2.83;2.53;;;;;;;;;;5013784;28;20197;-46
2023/02/14 07:29:53;;;;;;;2.97;2.65;;;;;;;;;;5017019;28;20472;-46
2023/02/14 07:32:19;;;;;;;2.97;2.67;;;;;;;;;;5015592;28;20177;-46
2023/02/14 07:34:46;;;;;;;2.58;2.38;;;;;;;;;;5012325;28;20195;-46
2023/02/14 07:37:12;;;;;;;3.22;2.50;;;;;;;;;;5006633;28;20166;-47
2023/02/14 07:39:38;;;;;;;3.25;2.70;;;;;;;;;;5011364;28;20444;-47
2023/02/14 07:42:04;;;;;;;4.30;2.78;;;;;;;;;;5015882;28;20176;-46
2023/02/14 07:44:30;;;;;;;2.60;2.35;;;;;;;;;;5013830;28;20181;-46
2023/02/14 07:46:56;;;;;;;3.13;2.53;;;;;;;;;;5014596;28;20442;-46
2023/02/14 07:49:22;;;;;;;2.50;2.30;;;;;;;;;;5007305;28;20184;-47
2023/02/14 07:51:48;;;;;;;2.67;2.38;;;;;;;;;;5014149;28;20188;-47
2023/02/14 07:54:14;;;;;;;3.25;2.55;;;;;;;;;;5010858;28;20180;-46
2023/02/14 07:56:40;;;;;;;4.10;2.42;;;;;;;;;;5016415;28;20181;-47
2023/02/14 07:59:05;;;;;;;3.17;2.83;;;;;;;;;;5013904;28;20184;-47
2023/02/14 08:01:32;;;;;;;2.60;2.40;;;;;;;;;;5012277;28;20202;-46
2023/02/14 08:03:58;;;;;;;2.92;2.60;;;;;;;;;;5004474;28;20185;-47
2023/02/14 08:06:26;;;;;;;2.85;2.55;;;;;;;;;;5009537;28;20176;-46
2023/02/14 08:08:52;;;;;;;2.70;2.45;;;;;;;;;;5007417;28;20571;-47
2023/02/14 08:14:03;;;;;;;2.97;2.70;;;;;;;;;;5016282;28;20516;-46
2023/02/14 08:16:32;;;;;;;3.13;2.83;;;;;;;;;;5005177;28;20268;-47
2023/02/14 08:18:58;;;;;;;3.60;2.80;;;;;;;;;;5004426;28;20197;-46
2023/02/14 08:21:24;;;;;;;3.60;2.63;;;;;;;;;;5006998;28;20205;-47
2023/02/14 08:23:50;;;;;;;2.70;2.50;;;;;;;;;;5004605;28;20196;-47
2023/02/14 08:26:16;;;;;;;3.50;2.60;;;;;;;;;;5013491;28;20560;-46
2023/02/14 08:28:42;;;;;;;2.97;2.75;;;;;;;;;;5013512;28;20184;-46
2023/02/14 08:31:09;;;;;;;2.75;2.55;;;;;;;;;;5014864;28;20211;-46
2023/02/14 08:33:35;;;;;;;3.03;2.70;;;;;;;;;;5006772;28;20199;-46
2023/02/14 08:36:01;;;;;;;3.08;2.78;;;;;;;;;;5005946;28;20484;-46
2023/02/14 08:38:27;;;;;;;2.90;2.65;;;;;;;;;;5013183;28;20250;-46
2023/02/14 08:40:53;;;;;;;3.17;2.88;;;;;;;;;;5008769;28;20181;-46
2023/02/14 08:43:19;;;;;;;3.40;2.80;;;;;;;;;;5012161;28;20173;-46
2023/02/14 08:45:45;;;;;;;2.63;2.42;;;;;;;;;;5008366;28;20483;-46
2023/02/14 08:48:11;;;;;;;2.30;2.15;;;;;;;;;;5014085;28;20180;-46
2023/02/14 08:50:38;;;;;;;2.85;2.60;;;;;;;;;;5006061;28;20242;-47
2023/02/14 08:53:08;;;;;;;2.60;2.30;;;;;;;;;;5004059;28;20487;-46
2023/02/14 08:55:35;;;;;;;3.08;2.78;;;;;;;;;;5007940;28;20172;-46
2023/02/14 08:58:01;;;;;;;2.75;2.55;;;;;;;;;;5010558;28;20211;-46
2023/02/14 09:00:27;;;;;;;3.00;2.78;;;;;;;;;;5013738;28;20184;-46
2023/02/14 09:02:53;;;;;;;2.45;2.22;;;;;;;;;;5012400;28;20678;-46
2023/02/14 09:05:22;;;;;;;3.45;2.90;;;;;;;;;;5014117;28;20263;-46
2023/02/14 09:07:48;;;;;;;2.47;2.28;;;;;;;;;;5006458;28;20188;-46
2023/02/14 09:10:13;;;;;;;2.80;2.60;;;;;;;;;;5014347;28;20220;-46
2023/02/14 09:12:40;;;;;;;2.38;2.17;;;;;;;;;;5010274;28;20188;-46
2023/02/14 09:15:06;;;;;;;2.70;2.50;;;;;;;;;;5010757;28;20187;-46
2023/02/14 09:17:33;;;;;;;2.70;2.50;;;;;;;;;;5008761;28;20219;-47
2023/02/14 09:19:58;;;;;;;3.15;2.85;;;;;;;;;;5009842;28;20188;-46
2023/02/14 09:22:24;;;;;;;2.85;2.63;;;;;;;;;;5009012;28;20511;-47
2023/02/14 09:24:50;;;;;;;3.33;3.03;;;;;;;;;;5013732;28;20188;-46
2023/02/14 09:27:16;;;;;;;3.30;2.80;;;;;;;;;;5014037;28;20195;-46
2023/02/14 09:29:42;;;;;;;2.47;2.28;;;;;;;;;;5013662;28;20679;-46
2023/02/14 09:32:08;;;;;;;2.53;2.33;;;;;;;;;;5010999;28;20208;-46
2023/02/14 09:34:34;;;;;;;3.00;2.67;;;;;;;;;;5013746;28;20185;-46
2023/02/14 09:39:45;;;;;;;2.30;2.20;;;;;;;;;;5000485;28;20250;-46
2023/02/14 09:42:36;;;;;;;2.70;2.50;;;;;;;;;;5013461;28;20184;-50
2023/02/14 09:45:05;;;;;;;2.88;2.67;;;;;;;;;;5007314;28;20234;-47
2023/02/14 09:47:34;;;;;;;2.83;2.63;;;;;;;;;;5010855;28;20560;-46
2023/02/14 09:50:00;;;;;;;2.53;2.25;;;;;;;;;;5007730;28;20231;-46
2023/02/14 09:52:27;;;;;;;3.08;2.78;;;;;;;;;;5004597;28;20189;-46
2023/02/14 09:54:56;;;;;;;3.00;2.67;;;;;;;;;;5013501;28;20180;-46
2023/02/14 09:57:36;;;;;;;2.75;2.53;;;;;;;;;;5006743;28;20190;-46
2023/02/14 10:00:11;;;;;;;2.92;2.63;;;;;;;;;;5009485;28;20231;-46
2023/02/14 10:02:55;;;;;;;2.83;2.60;;;;;;;;;;5007514;28;20192;-46
2023/02/14 10:05:21;;;;;;;3.85;2.47;;;;;;;;;;5010714;28;20180;-46
2023/02/14 10:08:06;;;;;;;2.80;2.60;;;;;;;;;;4999523;28;20584;-46
2023/02/14 10:10:40;;;;;;;2.50;2.30;;;;;;;;;;5012322;28;20212;-46
2023/02/14 10:13:25;;;;;;;2.45;2.25;;;;;;;;;;5006407;28;20184;-46
2023/02/14 10:15:58;;;;;;;2.58;2.38;;;;;;;;;;5009765;28;20176;-46
2023/02/14 10:18:27;;;;;;;2.42;2.22;;;;;;;;;;5002835;28;20208;-46
2023/02/14 10:20:55;;;;;;;2.45;2.22;;;;;;;;;;5003455;28;20580;-46
2023/02/14 10:23:29;;;;;;;2.70;2.50;;;;;;;;;;5011643;28;20180;-46
2023/02/14 10:26:03;;;;;;;3.10;2.80;;;;;;;;;;5014527;28;20592;-46
2023/02/14 10:28:30;;;;;;;3.05;2.75;;;;;;;;;;5007455;28;20204;-47
2023/02/14 10:31:10;;;;;;;2.55;2.35;;;;;;;;;;5018164;28;20282;-48
2023/02/14 10:33:38;;;;;;;2.75;2.38;;;;;;;;;;5017398;28;20184;-47
2023/02/14 10:36:08;;;;;;;2.45;2.25;;;;;;;;;;5017255;28;20176;-46
2023/02/14 10:38:41;;;;;;;2.55;2.35;;;;;;;;;;5017562;28;20192;-46
2023/02/14 10:41:13;;;;;;;2.53;2.33;;;;;;;;;;5008837;28;20188;-46
2023/02/14 10:43:39;;;;;;;2.55;2.35;;;;;;;;;;5017108;28;20204;-46
2023/02/14 10:46:12;;;;;;;2.25;2.05;;;;;;;;;;5015185;28;20184;-46
2023/02/14 10:48:51;;;;;;;2.50;2.30;;;;;;;;;;5013976;28;20196;-47
2023/02/14 10:51:37;;;;;;;2.60;2.40;;;;;;;;;;5014574;28;20232;-47
2023/02/14 10:54:14;;;;;;;2.50;2.30;;;;;;;;;;5013399;28;20180;-47
2023/02/14 10:56:42;;;;;;;2.40;2.20;;;;;;;;;;5015916;28;20208;-47
2023/02/14 10:59:18;;;;;;;2.35;2.15;;;;;;;;;;5012575;28;20250;-46
2023/02/14 11:01:45;;;;;;;2.42;2.22;;;;;;;;;;5013477;28;20180;-46
2023/02/14 11:04:12;;;;;;;2.60;2.40;;;;;;;;;;5013905;28;20200;-46
2023/02/14 11:06:38;;;;;;;2.30;2.20;;;;;;;;;;5013832;28;20192;-46
2023/02/14 11:09:04;;;;;;;2.35;2.15;;;;;;;;;;5008338;28;20177;-46
2023/02/14 11:11:37;;;;;;;2.20;2.00;;;;;;;;;;5004674;28;20469;-46
2023/02/14 11:14:23;;;;;;;2.25;2.10;;;;;;;;;;5016591;28;20187;-46
2023/02/14 11:16:53;;;;;;;2.53;2.20;;;;;;;;;;5012120;28;20191;-46
2023/02/14 11:19:26;;;;;;;2.40;2.10;;;;;;;;;;5014409;28;20195;-44
2023/02/14 11:21:53;;;;;;;2.97;2.38;;;;;;;;;;5004568;28;20494;-44
2023/02/14 11:24:28;;;;;;;2.28;2.08;;;;;;;;;;5012452;28;20176;-44
2023/02/14 11:26:57;;;;;;;2.42;2.22;;;;;;;;;;5003217;28;20575;-46
2023/02/14 11:29:26;;;;;;;2.15;2.00;;;;;;;;;;5012239;28;20450;-46
2023/02/14 11:31:53;;;;;;;2.25;2.05;;;;;;;;;;5012545;28;20584;-46
2023/02/14 11:34:31;;;;;;;2.42;2.22;;;;;;;;;;5012160;28;20200;-46
2023/02/14 11:36:57;;;;;;;2.30;2.00;;;;;;;;;;5010835;28;20177;-45
2023/02/14 11:39:34;;;;;;;2.30;2.10;;;;;;;;;;5014624;28;20180;-45
2023/02/14 11:42:05;;;;;;;2.15;1.95;;;;;;;;;;5015518;28;20227;-45
2023/02/14 11:44:35;;;;;;;2.00;1.90;;;;;;;;;;5013045;28;20635;-45
2023/02/14 11:47:16;;;;;;;2.13;1.90;;;;;;;;;;5006692;28;20172;-45
2023/02/14 11:49:53;;;;;;;2.25;2.05;;;;;;;;;;5015050;28;20438;-45
2023/02/14 11:52:25;;;;;;;2.88;2.00;;;;;;;;;;5014253;28;20259;-46
2023/02/14 11:54:51;;;;;;;3.63;2.00;;;;;;;;;;5015314;28;20591;-45
2023/02/14 11:57:21;;;;;;;3.35;1.80;;;;;;;;;;5015116;28;20495;-45
2023/02/14 11:59:49;;;;;;;4.72;2.22;;;;;;;;;;5005963;28;20180;-45
2023/02/14 12:02:23;;;;;;;2.13;1.90;;;;;;;;;;5010369;28;20443;-45
2023/02/14 12:04:52;;;;;;;2.20;2.00;;;;;;;;;;5014517;28;20189;-45
2023/02/14 12:07:28;;;;;;;6.88;2.20;;;;;;;;;;5014302;28;20589;-45
2023/02/14 12:10:24;;;;;;;2.95;2.10;;;;;;;;;;5005095;28;20248;-45
2023/02/14 12:12:54;;;;;;;4.00;2.35;;;;;;;;;;5003866;28;20188;-45
2023/02/14 12:15:39;;;;;;;2.20;2.00;;;;;;;;;;5016555;28;20181;-45
2023/02/14 12:18:23;;;;;;;3.97;2.00;;;;;;;;;;5005225;28;20303;-45
2023/02/14 12:20:57;;;;;;;2.40;2.20;;;;;;;;;;5002762;28;20219;-45
2023/02/14 12:23:23;;;;;;;2.70;2.10;;;;;;;;;;5004604;28;20189;-44
2023/02/14 12:25:58;;;;;;;5.05;1.90;;;;;;;;;;5004914;28;20187;-44
2023/02/14 12:28:39;;;;;;;5.65;2.15;;;;;;;;;;5005448;28;20227;-43
2023/02/14 12:31:09;;;;;;;3.85;2.17;;;;;;;;;;5017504;28;20189;-44
2023/02/14 12:33:35;;;;;;;2.35;2.08;;;;;;;;;;5013277;28;20452;-43
2023/02/14 12:36:16;;;;;;;4.38;2.42;;;;;;;;;;5010774;28;20185;-44
2023/02/14 12:38:53;;;;;;;5.38;2.30;;;;;;;;;;5003921;28;20237;-43
2023/02/14 12:41:37;;;;;;;2.38;2.10;;;;;;;;;;5011178;28;20212;-43
2023/02/14 12:44:08;;;;;;;2.88;2.00;;;;;;;;;;5008002;28;20556;-43
2023/02/14 12:46:39;;;;;;;3.10;2.15;;;;;;;;;;5015762;28;20196;-43
2023/02/14 12:49:13;;;;;;;4.90;2.20;;;;;;;;;;5009335;28;20181;-43
2023/02/14 12:51:46;;;;;;;3.30;2.08;;;;;;;;;;5006978;28;20210;-43
2023/02/14 12:54:30;;;;;;;3.05;2.10;;;;;;;;;;5008685;28;20195;-44
2023/02/14 12:57:15;;;;;;;3.60;2.47;;;;;;;;;;5004249;28;20211;-43
2023/02/14 12:59:41;;;;;;;3.90;2.47;;;;;;;;;;5014419;28;20189;-45
2023/02/14 13:02:16;;;;;;;5.65;2.33;;;;;;;;;;5009762;28;20203;-45
2023/02/14 13:05:01;;;;;;;4.38;2.20;;;;;;;;;;5007215;28;20207;-43
2023/02/14 13:07:42;;;;;;;2.78;2.05;;;;;;;;;;5009274;28;20196;-43
2023/02/14 13:10:11;;;;;;;2.72;2.30;;;;;;;;;;5004385;28;20237;-46
2023/02/14 13:12:43;;;;;;;2.33;2.03;;;;;;;;;;5007789;28;20212;-46
2023/02/14 13:15:09;;;;;;;2.03;1.75;;;;;;;;;;5015108;28;20194;-43
2023/02/14 13:17:46;;;;;;;3.13;2.33;;;;;;;;;;5013546;28;20231;-43
2023/02/14 13:20:15;;;;;;;2.60;2.10;;;;;;;;;;5008894;28;20266;-43
2023/02/14 13:22:41;;;;;;;2.90;2.42;;;;;;;;;;5009744;28;20508;-43
2023/02/14 13:25:38;;;;;;;3.10;2.40;;;;;;;;;;5014776;28;20231;-43
2023/02/14 13:28:06;;;;;;;3.65;2.25;;;;;;;;;;4997867;28;20208;-44
2023/02/14 13:30:34;;;;;;;4.13;2.13;;;;;;;;;;5013998;28;20235;-44
2023/02/14 13:33:03;;;;;;;4.20;2.50;;;;;;;;;;5012032;28;20287;-44
2023/02/14 13:35:29;;;;;;;5.45;2.38;;;;;;;;;;5010849;28;20567;-44
2023/02/14 13:37:58;;;;;;;5.82;2.35;;;;;;;;;;5010612;28;20521;-44
2023/02/14 13:40:25;;;;;;;7.47;2.47;;;;;;;;;;5015141;28;20199;-44
2023/02/14 13:42:53;;;;;;;3.88;2.50;;;;;;;;;;5013120;28;20481;-44
2023/02/14 13:45:31;;;;;;;5.93;2.20;;;;;;;;;;5014224;28;20172;-44
2023/02/14 13:48:11;;;;;;;12.30;2.90;;;;;;;;;;5001916;28;20615;-44
2023/02/14 13:50:39;;;;;;;6.82;2.80;;;;;;;;;;5007975;28;20258;-44
2023/02/14 13:53:05;;;;;;;4.50;2.20;;;;;;;;;;5008458;28;20227;-44
2023/02/14 13:55:35;;;;;;;8.15;2.20;;;;;;;;;;5010261;28;20278;-44
2023/02/14 13:58:03;;;;;;;5.13;2.42;;;;;;;;;;5004587;28;20204;-44
2023/02/14 14:00:49;;;;;;;6.28;2.22;;;;;;;;;;5012187;28;20203;-44
2023/02/14 14:03:35;;;;;;;6.80;2.55;;;;;;;;;;5007255;28;20180;-44
2023/02/14 14:06:04;;;;;;;3.72;2.17;;;;;;;;;;5008627;28;20226;-44
2023/02/14 14:08:30;;;;;;;4.82;2.15;;;;;;;;;;5016836;28;20185;-44
2023/02/14 14:11:00;;;;;;;3.30;2.13;;;;;;;;;;5018827;28;20262;-44
2023/02/14 14:13:42;;;;;;;2.65;2.10;;;;;;;;;;5009386;28;20449;-44
2023/02/14 14:16:26;;;;;;;5.63;2.20;;;;;;;;;;5011459;28;20184;-44
2023/02/14 14:18:52;;;;;;;2.00;1.83;;;;;;;;;;5009814;28;20180;-44
2023/02/14 14:21:23;;;;;;;2.17;1.90;;;;;;;;;;5014958;28;20195;-44
2023/02/14 14:24:08;;;;;;;5.35;2.40;;;;;;;;;;5008192;28;20195;-44
2023/02/14 14:26:36;;;;;;;4.25;1.90;;;;;;;;;;5014024;28;20195;-44
2023/02/14 14:29:21;;;;;;;4.15;2.00;;;;;;;;;;5016291;28;20184;-44
2023/02/14 14:31:54;;;;;;;2.72;1.92;;;;;;;;;;5017608;28;20346;-44
2023/02/14 14:34:20;;;;;;;2.55;1.90;;;;;;;;;;5017325;28;20263;-44
2023/02/14 14:36:46;;;;;;;4.18;2.20;;;;;;;;;;5017209;28;20279;-45
2023/02/14 14:39:12;;;;;;;4.75;1.95;;;;;;;;;;5017486;28;20185;-44
2023/02/14 14:41:40;;;;;;;3.65;1.73;;;;;;;;;;5013190;28;20250;-45
2023/02/14 14:44:06;;;;;;;2.58;1.90;;;;;;;;;;5015767;28;20191;-44
2023/02/14 14:46:33;;;;;;;4.05;1.92;;;;;;;;;;5011392;28;20459;-44
2023/02/14 14:48:59;;;;;;;2.08;1.92;;;;;;;;;;5014972;28;20188;-45
2023/02/14 14:51:29;;;;;;;2.25;1.90;;;;;;;;;;5014775;28;20317;-44
2023/02/14 14:53:59;;;;;;;2.15;1.80;;;;;;;;;;5015383;28;20554;-44
2023/02/14 14:56:27;;;;;;;2.70;1.98;;;;;;;;;;5010792;28;20181;-44
2023/02/14 14:58:53;;;;;;;2.72;1.85;;;;;;;;;;5014352;28;20459;-44
2023/02/14 15:01:38;;;;;;;3.53;1.95;;;;;;;;;;5012863;28;20184;-44
2023/02/14 15:04:28;;;;;;;6.38;1.80;;;;;;;;;;5009314;28;20195;-45
2023/02/14 15:06:55;;;;;;;3.63;1.90;;;;;;;;;;5000506;28;20319;-44
2023/02/14 15:09:22;;;;;;;1.88;1.77;;;;;;;;;;5013764;28;20492;-44
2023/02/14 15:14:35;;;;;;;2.10;1.75;;;;;;;;;;5014047;28;20196;-44
2023/02/14 15:17:03;;;;;;;4.65;1.83;;;;;;;;;;5013192;28;20255;-44
2023/02/14 15:19:35;;;;;;;2.72;1.58;;;;;;;;;;5013076;28;20182;-44
2023/02/14 15:22:04;;;;;;;3.10;1.52;;;;;;;;;;5002878;28;20173;-45
2023/02/14 15:24:32;;;;;;;2.58;1.60;;;;;;;;;;5013825;28;20177;-44